createdAt,value
2022-08-07T00:02:37.930Z,8.10
2022-08-07T00:05:05.721Z,8.30
2022-08-07T00:07:41.176Z,7.90
2022-08-07T00:10:29.847Z,8.10
2022-08-07T00:13:03.147Z,7.60
2022-08-07T00:15:52.519Z,7.80
2022-08-07T00:18:24.565Z,7.70
2022-08-07T00:21:03.477Z,7.50
2022-08-07T00:23:40.274Z,8.20
2022-08-07T00:26:18.861Z,7.50
2022-08-07T00:29:01.422Z,8.10
2022-08-07T00:31:37.921Z,7.30
2022-08-07T00:34:11.751Z,7.30
2022-08-07T00:36:43.217Z,7.80
2022-08-07T00:39:16.475Z,7.80
2022-08-07T00:42:05.337Z,7.80
2022-08-07T00:44:38.270Z,8.00
2022-08-07T00:48:05.207Z,8.10
2022-08-07T00:50:21.093Z,7.10
2022-08-07T00:52:49.107Z,7.70
2022-08-07T00:55:25.577Z,7.90
2022-08-07T00:58:07.269Z,8.00
2022-08-07T01:00:36.060Z,8.00
2022-08-07T01:03:05.205Z,7.30
2022-08-07T01:05:36.558Z,7.30
2022-08-07T01:08:09.131Z,7.40
2022-08-07T01:10:39.571Z,7.40
2022-08-07T01:13:16.803Z,7.20
2022-08-07T01:16:05.436Z,7.70
2022-08-07T01:18:36.759Z,7.30
2022-08-07T01:21:17.470Z,7.70
2022-08-07T01:23:58.048Z,7.40
2022-08-07T01:26:28.340Z,7.50
2022-08-07T01:28:59.003Z,7.40
2022-08-07T01:31:42.827Z,7.50
2022-08-07T01:34:30.694Z,7.20
2022-08-07T01:37:02.234Z,6.90
2022-08-07T01:39:40.938Z,7.30
2022-08-07T01:42:39.968Z,7.00
2022-08-07T01:45:36.422Z,7.00
2022-08-07T01:48:18.115Z,7.50
2022-08-07T01:50:55.543Z,7.40
2022-08-07T01:54:09.229Z,7.40
2022-08-07T01:56:23.457Z,7.30
2022-08-07T01:59:15.680Z,7.20
2022-08-07T02:01:59.626Z,7.30
2022-08-07T02:05:16.175Z,7.40
2022-08-07T02:08:06.284Z,7.30
2022-08-07T02:10:42.551Z,7.40
2022-08-07T02:13:16.120Z,7.90
2022-08-07T02:15:57.238Z,7.80
2022-08-07T02:18:30.454Z,7.10
2022-08-07T02:21:06.163Z,7.40
2022-08-07T02:23:40.368Z,7.60
2022-08-07T02:26:32.759Z,7.60
2022-08-07T02:29:00.136Z,7.30
2022-08-07T02:31:32.705Z,7.00
2022-08-07T02:34:11.490Z,7.60
2022-08-07T02:36:50.800Z,6.90
2022-08-07T02:39:43.979Z,7.30
2022-08-07T02:42:16.284Z,7.70
2022-08-07T02:44:51.903Z,7.80
2022-08-07T02:47:24.467Z,8.00
2022-08-07T02:50:00.193Z,7.20
2022-08-07T02:52:44.246Z,7.50
2022-08-07T02:55:28.608Z,8.00
2022-08-07T02:58:19.232Z,7.80
2022-08-07T03:00:53.233Z,8.00
2022-08-07T03:03:23.474Z,8.50
2022-08-07T03:05:57.062Z,7.80
2022-08-07T03:08:29.494Z,7.90
2022-08-07T03:11:01.970Z,8.30
2022-08-07T03:13:49.988Z,8.20
2022-08-07T03:16:23.033Z,7.90
2022-08-07T03:18:58.485Z,8.10
2022-08-07T03:21:28.609Z,8.20
2022-08-07T03:24:26.668Z,8.60
2022-08-07T03:26:57.825Z,8.20
2022-08-07T03:29:37.882Z,8.50
2022-08-07T03:32:13.004Z,8.70
2022-08-07T03:35:00.956Z,9.10
2022-08-07T03:37:46.463Z,9.40
2022-08-07T03:40:30.766Z,9.60
2022-08-07T03:43:13.679Z,8.60
2022-08-07T03:48:19.002Z,8.00
2022-08-07T03:50:56.223Z,7.70
2022-08-07T03:54:01.858Z,7.90
2022-08-07T03:56:33.382Z,8.20
2022-08-07T03:59:13.134Z,8.90
2022-08-07T04:01:47.926Z,8.20
2022-08-07T04:04:20.118Z,8.70
2022-08-07T04:06:53.126Z,8.80
2022-08-07T04:09:25.602Z,9.10
2022-08-07T04:12:27.495Z,9.10
2022-08-07T04:15:00.446Z,9.40
2022-08-07T04:18:30.784Z,8.70
2022-08-07T04:20:23.015Z,10.50
2022-08-07T04:23:01.866Z,8.90
2022-08-07T04:25:40.834Z,8.50
2022-08-07T04:28:13.261Z,8.60
2022-08-07T04:30:55.491Z,8.70
2022-08-07T04:33:35.388Z,8.80
2022-08-07T04:36:06.412Z,8.50
2022-08-07T04:38:37.167Z,8.30
2022-08-07T04:41:06.746Z,8.00
2022-08-07T04:44:13.189Z,8.50
2022-08-07T04:47:08.379Z,8.00
2022-08-07T04:49:58.120Z,8.00
2022-08-07T04:53:39.952Z,7.80
2022-08-07T04:58:15.000Z,7.80
2022-08-07T05:00:11.306Z,7.70
2022-08-07T05:03:17.082Z,7.30
2022-08-07T05:06:19.566Z,8.00
2022-08-07T05:09:02.477Z,7.70
2022-08-07T05:11:58.495Z,7.50
2022-08-07T05:14:55.449Z,8.10
2022-08-07T05:17:50.251Z,7.50
2022-08-07T05:23:06.474Z,7.20
2022-08-07T05:26:13.170Z,6.90
2022-08-07T05:28:40.502Z,7.30
2022-08-07T05:31:14.676Z,7.30
2022-08-07T05:34:01.485Z,7.40
2022-08-07T05:36:39.227Z,7.80
2022-08-07T05:40:05.492Z,7.40
2022-08-07T05:43:05.198Z,7.40
2022-08-07T05:45:46.932Z,7.40
2022-08-07T05:48:20.565Z,7.80
2022-08-07T05:50:58.612Z,7.00
2022-08-07T05:54:09.487Z,7.50
2022-08-07T05:56:20.467Z,7.30
2022-08-07T05:59:02.920Z,7.50
2022-08-07T06:01:36.061Z,7.30
2022-08-07T06:04:08.660Z,6.60
2022-08-07T06:06:45.841Z,7.20
2022-08-07T06:09:15.906Z,7.30
2022-08-07T06:11:47.794Z,6.90
2022-08-07T06:14:21.462Z,7.40
2022-08-07T06:17:07.278Z,7.40
2022-08-07T06:19:47.887Z,6.50
2022-08-07T06:22:38.471Z,6.60
2022-08-07T06:25:22.297Z,6.10
2022-08-07T06:28:01.318Z,6.30
2022-08-07T06:30:37.473Z,6.50
2022-08-07T06:33:16.981Z,6.80
2022-08-07T06:36:12.246Z,6.70
2022-08-07T06:42:02.510Z,6.30
2022-08-07T06:44:52.226Z,6.30
2022-08-07T06:47:22.142Z,6.80
2022-08-07T06:49:58.234Z,6.70
2022-08-07T06:52:36.493Z,6.80
2022-08-07T06:55:32.303Z,6.80
2022-08-07T06:58:10.696Z,7.10
2022-08-07T07:00:59.286Z,6.60
2022-08-07T07:03:47.456Z,6.90
2022-08-07T07:06:26.142Z,6.00
2022-08-07T07:08:56.834Z,6.60
2022-08-07T07:12:08.137Z,6.50
2022-08-07T07:14:19.497Z,6.50
2022-08-07T07:16:53.914Z,6.20
2022-08-07T07:19:55.755Z,6.40
2022-08-07T07:24:09.518Z,6.80
2022-08-07T07:27:12.526Z,6.50
2022-08-07T07:29:56.913Z,6.50
2022-08-07T07:32:41.258Z,6.50
2022-08-07T07:35:12.583Z,12.80
2022-08-07T07:37:52.567Z,10.20
2022-08-07T07:40:30.141Z,9.10
2022-08-07T07:46:40.216Z,7.00
2022-08-07T07:48:40.533Z,7.40
2022-08-07T07:51:16.014Z,6.40
2022-08-07T07:53:52.098Z,6.20
2022-08-07T07:56:30.071Z,6.60
2022-08-07T07:59:02.250Z,6.70
2022-08-07T08:02:03.109Z,7.20
2022-08-07T08:04:25.827Z,6.40
2022-08-07T08:06:56.954Z,5.80
2022-08-07T08:09:33.843Z,6.40
2022-08-07T08:12:50.144Z,6.40
2022-08-07T08:15:10.802Z,6.30
2022-08-07T08:17:57.287Z,7.00
2022-08-07T08:20:32.342Z,6.50
2022-08-07T08:23:21.342Z,6.20
2022-08-07T08:26:20.564Z,6.40
2022-08-07T08:28:52.140Z,6.80
2022-08-07T08:31:59.296Z,6.30
2022-08-07T08:34:26.804Z,6.50
2022-08-07T08:36:59.035Z,8.40
2022-08-07T08:39:39.824Z,7.00
2022-08-07T08:42:56.814Z,6.50
2022-08-07T08:45:59.502Z,6.40
2022-08-07T08:48:53.170Z,7.70
2022-08-07T08:52:14.346Z,6.30
2022-08-07T08:55:07.919Z,6.90
2022-08-07T08:58:24.760Z,6.80
2022-08-07T09:01:58.395Z,9.00
2022-08-07T09:05:09.679Z,7.10
2022-08-07T09:07:58.040Z,6.20
2022-08-07T09:10:38.181Z,7.10
2022-08-07T09:13:38.215Z,6.10
2022-08-07T09:16:29.724Z,6.90
2022-08-07T09:19:51.731Z,6.60
2022-08-07T09:24:33.848Z,7.10
2022-08-07T09:26:23.128Z,8.90
2022-08-07T09:33:16.690Z,6.80
2022-08-07T09:37:02.033Z,6.20
2022-08-07T09:40:00.003Z,6.30
2022-08-07T09:42:54.710Z,5.70
2022-08-07T09:47:51.545Z,6.00
2022-08-07T09:50:18.321Z,6.80
2022-08-07T09:52:34.241Z,5.80
2022-08-07T09:56:04.342Z,7.40
2022-08-07T09:59:07.812Z,5.60
2022-08-07T10:02:24.205Z,5.80
2022-08-07T10:06:00.725Z,5.20
2022-08-07T10:08:52.956Z,5.90
2022-08-07T10:12:02.664Z,5.80
2022-08-07T10:15:03.071Z,5.70
2022-08-07T10:18:08.938Z,6.00
2022-08-07T10:21:14.898Z,5.80
2022-08-07T10:24:21.745Z,5.90
2022-08-07T10:27:23.088Z,6.10
2022-08-07T10:30:12.019Z,6.40
2022-08-07T10:33:02.863Z,5.90
2022-08-07T10:35:55.870Z,6.10
2022-08-07T10:38:48.915Z,5.80
2022-08-07T10:41:52.083Z,5.60
2022-08-07T10:44:54.967Z,5.30
2022-08-07T10:47:52.516Z,5.80
2022-08-07T10:50:28.438Z,5.90
2022-08-07T10:52:58.053Z,5.40
2022-08-07T10:55:38.890Z,6.10
2022-08-07T10:58:32.044Z,5.50
2022-08-07T11:01:51.822Z,5.40
2022-08-07T11:04:48.255Z,5.70
2022-08-07T11:08:00.504Z,5.40
2022-08-07T11:10:39.390Z,6.00
2022-08-07T11:14:42.647Z,5.50
2022-08-07T11:16:21.272Z,5.90
2022-08-07T11:19:27.302Z,5.70
2022-08-07T11:22:26.664Z,5.90
2022-08-07T11:25:26.149Z,6.30
2022-08-07T11:28:17.868Z,6.50
2022-08-07T11:31:13.711Z,5.20
2022-08-07T11:33:58.626Z,5.90
2022-08-07T11:36:56.446Z,6.30
2022-08-07T11:40:00.314Z,6.00
2022-08-07T11:42:46.599Z,6.70
2022-08-07T11:45:36.129Z,6.20
2022-08-07T11:48:30.131Z,10.30
2022-08-07T11:51:41.607Z,9.10
2022-08-07T11:54:22.146Z,8.40
2022-08-07T11:57:06.464Z,6.10
2022-08-07T12:00:19.018Z,5.50
2022-08-07T12:02:57.899Z,5.60
2022-08-07T12:05:49.158Z,6.70
2022-08-07T12:08:25.725Z,8.80
2022-08-07T12:11:22.514Z,7.20
2022-08-07T12:13:58.809Z,5.30
2022-08-07T12:16:34.847Z,7.30
2022-08-07T12:19:25.048Z,5.90
2022-08-07T12:22:38.437Z,6.20
2022-08-07T12:26:21.636Z,6.00
2022-08-07T12:28:34.812Z,6.20
2022-08-07T12:32:02.436Z,5.20
2022-08-07T12:34:36.994Z,5.10
2022-08-07T12:37:16.225Z,5.50
2022-08-07T12:42:28.130Z,5.00
2022-08-07T12:45:05.653Z,4.70
2022-08-07T12:47:37.489Z,4.80
2022-08-07T12:50:49.142Z,5.00
2022-08-07T12:53:18.962Z,4.70
2022-08-07T12:56:02.417Z,4.40
2022-08-07T12:58:39.618Z,4.10
2022-08-07T13:01:23.173Z,4.60
2022-08-07T13:06:04.576Z,5.30
2022-08-07T13:08:26.861Z,4.00
2022-08-07T13:12:02.160Z,3.30
2022-08-07T13:15:00.378Z,3.50
2022-08-07T13:17:40.087Z,4.00
2022-08-07T13:20:53.389Z,3.40
2022-08-07T13:24:25.652Z,3.50
2022-08-07T13:27:33.282Z,4.00
2022-08-07T13:30:39.945Z,3.50
2022-08-07T13:34:14.432Z,3.70
2022-08-07T13:36:17.373Z,4.10
2022-08-07T13:39:03.297Z,4.10
2022-08-07T13:41:42.781Z,3.70
2022-08-07T13:44:26.462Z,4.00
2022-08-07T13:46:59.693Z,3.90
2022-08-07T13:50:35.670Z,3.80
2022-08-07T13:52:35.041Z,3.30
2022-08-07T13:55:13.232Z,4.00
2022-08-07T13:58:01.778Z,4.10
2022-08-07T14:00:39.584Z,4.10
2022-08-07T14:04:06.872Z,3.70
2022-08-07T14:06:24.740Z,4.30
2022-08-07T14:08:54.965Z,3.60
2022-08-07T14:11:28.672Z,3.80
2022-08-07T14:14:19.987Z,4.30
2022-08-07T14:16:50.724Z,3.90
2022-08-07T14:20:42.841Z,4.00
2022-08-07T14:22:34.725Z,3.90
2022-08-07T14:25:13.746Z,4.00
2022-08-07T14:28:10.587Z,3.80
2022-08-07T14:30:51.948Z,4.00
2022-08-07T14:33:23.378Z,4.30
2022-08-07T14:35:58.596Z,3.70
2022-08-07T14:38:33.353Z,4.40
2022-08-07T14:41:14.829Z,4.20
2022-08-07T14:43:59.432Z,3.60
2022-08-07T14:46:37.654Z,3.80
2022-08-07T14:49:57.099Z,4.00
2022-08-07T14:52:22.359Z,4.20
2022-08-07T14:54:58.859Z,5.40
2022-08-07T15:00:20.735Z,4.00
2022-08-07T15:03:16.470Z,3.60
2022-08-07T15:05:54.277Z,3.80
2022-08-07T15:08:49.865Z,4.00
2022-08-07T15:11:53.879Z,4.70
2022-08-07T15:14:25.448Z,4.00
2022-08-07T15:17:04.254Z,3.90
2022-08-07T15:20:30.823Z,4.30
2022-08-07T15:22:33.387Z,4.10
2022-08-07T15:25:36.660Z,3.70
2022-08-07T15:33:58.949Z,4.30
2022-08-07T15:39:19.054Z,3.90
2022-08-07T15:44:54.200Z,3.90
2022-08-07T15:47:42.792Z,3.80
2022-08-07T15:50:37.714Z,4.80
2022-08-07T15:53:15.613Z,3.90
2022-08-07T15:55:53.864Z,3.50
2022-08-07T15:58:52.230Z,4.00
2022-08-07T16:01:24.710Z,3.60
2022-08-07T16:04:14.601Z,3.60
2022-08-07T16:06:51.863Z,3.40
2022-08-07T16:09:42.173Z,3.40
2022-08-07T16:12:33.574Z,4.20
2022-08-07T16:15:57.257Z,3.90
2022-08-07T16:18:43.540Z,4.00
2022-08-07T16:22:04.048Z,4.10
2022-08-07T16:25:55.529Z,5.80
2022-08-07T16:30:05.663Z,5.00
2022-08-07T16:31:50.150Z,3.50
2022-08-07T16:34:39.474Z,3.50
2022-08-07T16:38:04.829Z,4.70
2022-08-07T16:40:57.305Z,4.00
2022-08-07T16:44:02.506Z,3.60
2022-08-07T16:50:26.816Z,3.70
2022-08-07T16:52:50.676Z,3.60
2022-08-07T16:55:47.398Z,3.70
2022-08-07T16:58:22.675Z,3.50
2022-08-07T17:00:57.633Z,3.60
2022-08-07T17:03:58.625Z,3.70
2022-08-07T17:06:53.158Z,3.10
2022-08-07T17:10:07.091Z,3.40
2022-08-07T17:12:54.095Z,3.50
2022-08-07T17:15:44.725Z,3.70
2022-08-07T17:18:41.546Z,3.30
2022-08-07T17:21:49.100Z,3.60
2022-08-07T17:24:37.803Z,3.90
2022-08-07T17:27:51.261Z,3.60
2022-08-07T17:30:26.650Z,3.40
2022-08-07T17:34:09.143Z,3.90
2022-08-07T17:36:26.269Z,3.70
2022-08-07T17:39:10.113Z,3.80
2022-08-07T17:42:06.574Z,3.30
2022-08-07T17:44:41.664Z,3.70
2022-08-07T17:48:12.979Z,3.70
2022-08-07T17:51:24.690Z,5.50
2022-08-07T17:54:40.181Z,4.30
2022-08-07T17:57:56.442Z,3.80
2022-08-07T18:00:34.223Z,3.90
2022-08-07T18:04:40.867Z,4.10
2022-08-07T18:07:53.588Z,4.30
2022-08-07T18:12:16.319Z,4.60
2022-08-07T18:14:31.828Z,5.30
2022-08-07T18:18:39.590Z,6.80
2022-08-07T18:21:07.527Z,5.80
2022-08-07T18:23:43.461Z,5.90
2022-08-07T18:26:20.808Z,5.80
2022-08-07T18:30:06.171Z,5.60
2022-08-07T18:32:46.274Z,6.00
2022-08-07T18:35:27.515Z,6.10
2022-08-07T18:41:46.802Z,6.30
2022-08-07T18:44:15.833Z,5.90
2022-08-07T18:47:07.498Z,5.40
2022-08-07T18:50:31.695Z,4.70
2022-08-07T18:53:39.417Z,4.90
2022-08-07T18:56:20.369Z,5.70
2022-08-07T18:59:47.085Z,4.50
2022-08-07T19:05:22.299Z,4.40
2022-08-07T19:08:17.676Z,4.40
2022-08-07T19:10:51.776Z,4.20
2022-08-07T19:13:28.891Z,4.60
2022-08-07T19:17:00.805Z,3.90
2022-08-07T19:20:07.281Z,4.40
2022-08-07T19:23:57.128Z,3.80
2022-08-07T19:26:25.370Z,4.80
2022-08-07T19:31:03.464Z,4.40
2022-08-07T19:32:08.034Z,4.90
2022-08-07T19:34:47.626Z,4.60
2022-08-07T19:38:17.448Z,5.10
2022-08-07T19:42:08.092Z,4.80
2022-08-07T19:44:41.153Z,4.50
2022-08-07T19:47:17.068Z,4.70
2022-08-07T19:50:02.903Z,5.20
2022-08-07T19:52:58.763Z,4.70
2022-08-07T19:55:46.829Z,4.80
2022-08-07T19:58:28.387Z,5.10
2022-08-07T20:00:58.934Z,5.20
2022-08-07T20:03:33.594Z,4.90
2022-08-07T20:06:15.405Z,5.70
2022-08-07T20:09:03.033Z,4.90
2022-08-07T20:12:22.031Z,5.80
2022-08-07T20:15:33.060Z,5.40
2022-08-07T20:19:05.623Z,5.30
2022-08-07T20:29:48.431Z,5.40
2022-08-07T20:33:24.132Z,5.90
2022-08-07T20:37:05.595Z,5.30
2022-08-07T20:40:35.042Z,5.90
2022-08-07T20:43:09.439Z,5.70
2022-08-07T20:46:26.924Z,5.40
2022-08-07T20:48:34.676Z,5.50
2022-08-07T20:51:09.805Z,5.60
2022-08-07T20:54:02.967Z,5.70
2022-08-07T20:56:33.572Z,6.20
2022-08-07T20:59:05.079Z,6.00
2022-08-07T21:01:45.361Z,5.60
2022-08-07T21:04:28.056Z,5.60
2022-08-07T21:07:04.306Z,6.30
2022-08-07T21:09:51.830Z,6.20
2022-08-07T21:12:31.030Z,6.40
2022-08-07T21:15:03.996Z,5.40
2022-08-07T21:18:03.509Z,5.80
2022-08-07T21:20:33.341Z,5.70
2022-08-07T21:23:42.885Z,5.40
2022-08-07T21:26:30.969Z,5.80
2022-08-07T21:29:18.838Z,5.30
2022-08-07T21:32:43.698Z,5.00
2022-08-07T21:34:55.844Z,5.60
2022-08-07T21:37:59.596Z,5.60
2022-08-07T21:40:36.086Z,5.50
2022-08-07T21:43:36.665Z,5.00
2022-08-07T21:46:44.154Z,4.80
2022-08-07T21:49:26.832Z,4.90
2022-08-07T21:52:06.412Z,5.00
2022-08-07T21:55:28.203Z,4.80
2022-08-07T21:58:29.985Z,5.00
2022-08-07T22:01:04.987Z,5.10
2022-08-07T22:03:50.839Z,4.80
2022-08-07T22:06:33.871Z,5.20
2022-08-07T22:09:11.661Z,5.20
2022-08-07T22:11:53.317Z,5.30
2022-08-07T22:16:42.220Z,4.60
2022-08-07T22:18:02.407Z,5.30
2022-08-07T22:20:51.679Z,5.00
2022-08-07T22:23:28.692Z,4.90
2022-08-07T22:26:20.898Z,4.90
2022-08-07T22:29:08.997Z,5.30
2022-08-07T22:31:59.944Z,4.90
2022-08-07T22:34:55.966Z,5.20
2022-08-07T22:38:04.284Z,4.50
2022-08-07T22:40:51.622Z,5.10
2022-08-07T22:43:40.379Z,4.70
2022-08-07T22:47:03.526Z,4.80
2022-08-07T22:49:16.456Z,4.90
2022-08-07T22:52:37.260Z,5.00
2022-08-07T22:55:38.932Z,5.00
2022-08-07T22:58:29.121Z,5.40
2022-08-07T23:01:10.613Z,5.40
2022-08-07T23:04:16.425Z,5.20
2022-08-07T23:10:38.039Z,5.30
2022-08-07T23:13:48.871Z,5.60
2022-08-07T23:16:46.432Z,5.50
2022-08-07T23:20:12.182Z,5.60
2022-08-07T23:23:06.469Z,5.30
2022-08-07T23:26:00.860Z,5.80
2022-08-07T23:28:48.748Z,5.50
2022-08-07T23:32:48.988Z,5.60
2022-08-07T23:34:51.097Z,6.00
2022-08-07T23:38:00.492Z,5.80
2022-08-07T23:40:39.978Z,5.30
2022-08-07T23:43:41.633Z,5.50
2022-08-07T23:46:43.188Z,5.10
2022-08-07T23:49:20.132Z,5.80
2022-08-07T23:53:05.338Z,5.50
2022-08-07T23:55:10.349Z,5.70
2022-08-07T23:58:24.219Z,5.60
